LFPM 240000Z AUTO 02002KT CAVOK 16/11 Q1020

2019/08/24 00:00 LFPM 240000Z AUTO 02002KT CAVOK 16/11 Q1020 St Louis SEO Company | St Louis Web Design and Internet Marketing